logo
Search for airport 
image banner adimage banner adimage banner ad
image banner ad

YCUE - Cue

Located in Cue, Australia

ICAO - YCUE, IATA - CUY

Data provided by Airmate  

General information

Coordinates: S27°26'48" E117°55'7"
Elevation is 1472 feet MSL.
Magnetic variation is 0° East
View others Airports in Western Australia

Operational data

Special qualification required
Current time UTC:
Current local time:
Weather at : - ( 0 km )
METAR: KBKF 141658Z 34006KT 10SM FEW160 SCT220 34/01 A3023 RMK AO2A SLP127 T03430008
View NOTAMs / SUP AIP / TFR affecting this airport [VIEW]
Communications frequencies: [VIEW]

Runways:

RWY identifierQFULength (ft)Width (ft)SurfaceLDA (ft)
0441°649698X
22221°649698X

Airport contact information

Address: Cue Australia

Satellite view of YCUE